Time;durP1;ratioP1;P1;durP2;ratioP2;P2;SDS_P1;SDS_P2;PMS_P1;PMS_P2;Temp;Humidity;BMP_temperature;BMP_pressure;BME280_temperature;BME280_humidity;BME280_pressure;Samples;Min_cycle;Max_cycle;Signal;HPM_P1;HPM_P2
2021/08/27 06:55:47;;;;;;;;;;;;;;;;;;;;;
2021/08/27 06:59:58;;;;;;;;;;;;;;;;;;;;;
2021/08/27 07:03:08;;;;;;;;;;;;;;;;;;;;;
2021/08/27 07:06:31;;;;;;;;;;;;;;;;;;;;;
2021/08/27 08:50:58;;;;;;;;;;;;;;;;;;;;;
2021/08/27 09:01:14;;;;;;;;;;;;;;;;;;;;;
2021/08/27 09:10:51;;;;;;;6.53;1.95;;;17.90;87.60;;;;;;6176979;23;20012;-89
2021/08/27 10:10:13;;;;;;;6.32;1.63;;;18.70;82.20;;;;;;6159793;23;20013;-94
2021/08/27 10:13:14;;;;;;;;;;;;;;;;;;;;;
2021/08/27 10:16:37;;;;;;;;;;;;;;;;;;;;;
2021/08/27 10:19:48;;;;;;;4.18;1.40;;;18.80;80.50;;;;;;6165470;23;20456;-93
2021/08/27 10:22:24;;;;;;;4.03;2.05;;;18.90;80.50;;;;;;6165604;23;20019;-93
2021/08/27 10:25:20;;;;;;;6.78;2.10;;;18.90;80.30;;;;;;6144806;23;20017;-93
2021/08/27 10:28:35;;;;;;;3.35;1.27;;;18.70;84.00;;;;;;6175387;23;20037;-94
2021/08/27 11:24:17;;;;;;;4.05;1.30;;;18.10;91.90;;;;;;6238715;22;20027;-83
2021/08/27 11:26:48;;;;;;;3.20;1.40;;;18.20;91.40;;;;;;6310916;22;20014;-83
2021/08/27 11:29:34;;;;;;;5.97;1.52;;;18.20;91.00;;;;;;6339005;22;20329;-83
2021/08/27 11:32:27;;;;;;;4.68;1.38;;;18.30;90.80;;;;;;6286528;22;20003;-83
2021/08/27 11:34:55;;;;;;;4.15;1.45;;;18.30;90.70;;;;;;6311274;22;20320;-82
2021/08/27 11:37:23;;;;;;;2.83;0.93;;;18.40;90.90;;;;;;6338442;22;19999;-84
2021/08/27 11:40:10;;;;;;;4.60;1.27;;;18.50;90.70;;;;;;6310646;22;20002;-90
2021/08/27 11:42:44;;;;;;;5.22;1.40;;;18.50;90.60;;;;;;6309843;22;20007;-88
2021/08/27 11:45:19;;;;;;;4.30;1.35;;;18.60;90.60;;;;;;6339894;22;20002;-89
2021/08/27 11:47:58;;;;;;;4.55;1.20;;;18.70;90.50;;;;;;6313335;22;20010;-87
2021/08/27 11:50:40;;;;;;;3.47;1.35;;;18.70;90.50;;;;;;6310717;22;20083;-85
2021/08/27 11:53:10;;;;;;;4.60;1.52;;;18.90;90.50;;;;;;6310880;22;20003;-90
2021/08/27 11:55:46;;;;;;;3.83;1.45;;;18.90;89.80;;;;;;6308747;22;20432;-88
2021/08/27 11:58:21;;;;;;;4.57;1.60;;;18.90;88.60;;;;;;6338816;22;20001;-87
2021/08/27 12:00:59;;;;;;;8.73;1.90;;;19.00;87.40;;;;;;6310306;22;20424;-87
2021/08/27 12:03:32;;;;;;;5.68;1.80;;;19.00;85.50;;;;;;6310176;22;20385;-85
2021/08/27 12:05:58;;;;;;;6.88;1.80;;;19.00;86.10;;;;;;6309906;22;20044;-87
2021/08/27 12:08:27;;;;;;;5.53;1.70;;;19.00;86.10;;;;;;6338195;22;20002;-87
2021/08/27 12:10:56;;;;;;;6.50;2.10;;;19.00;85.00;;;;;;6310181;22;20002;-87
2021/08/27 12:13:22;;;;;;;6.95;2.15;;;19.00;85.10;;;;;;6309897;22;20039;-87
2021/08/27 12:15:50;;;;;;;8.45;2.15;;;18.90;85.10;;;;;;6310113;22;20432;-87
2021/08/27 12:18:17;;;;;;;5.88;1.70;;;19.00;85.30;;;;;;6284424;22;20036;-87
2021/08/27 12:20:52;;;;;;;5.47;1.95;;;19.00;85.50;;;;;;6310642;22;20006;-87
2021/08/27 12:23:25;;;;;;;6.97;1.98;;;19.10;85.40;;;;;;6311654;22;20056;-88
2021/08/27 12:26:33;;;;;;;;;;;;;;;;;;;;;
2021/08/27 12:28:59;;;;;;;7.35;2.10;;;19.20;84.90;;;;;;6317592;22;20377;-88
2021/08/27 12:31:42;;;;;;;4.65;1.73;;;19.30;84.10;;;;;;6310911;22;20019;-87
2021/08/27 12:34:20;;;;;;;5.03;1.73;;;19.30;84.50;;;;;;6310321;22;20038;-87
2021/08/27 12:37:11;;;;;;;8.65;1.95;;;19.40;84.70;;;;;;6311347;22;20085;-88
2021/08/27 12:39:45;;;;;;;4.55;1.80;;;19.50;83.00;;;;;;6289611;22;20037;-85
2021/08/27 12:42:16;;;;;;;6.88;2.22;;;19.50;82.20;;;;;;6337643;22;19999;-88
2021/08/27 12:45:10;;;;;;;5.68;1.88;;;19.50;82.60;;;;;;6310784;22;20095;-86
2021/08/27 12:47:43;;;;;;;7.75;2.30;;;19.60;82.80;;;;;;6311340;22;20032;-88
2021/08/27 12:50:25;;;;;;;;;;;;;;;;;;;;;
2021/08/27 12:53:04;;;;;;;6.25;1.95;;;19.50;81.50;;;;;;6339003;22;20079;-90
2021/08/27 12:55:32;;;;;;;7.40;2.05;;;19.50;82.00;;;;;;6309821;22;20079;-86
2021/08/27 12:58:08;;;;;;;10.77;3.05;;;19.40;82.10;;;;;;6309388;22;19999;-87
2021/08/27 13:05:18;;;;;;;;;;;;;;;;;;;;;
2021/08/27 13:08:43;;;;;;;;;;;;;;;;;;;;;
2021/08/27 22:05:39;;;;;;;;;;;;;;;;;;;;;
2021/08/27 22:56:45;;;;;;;;;;;;;;;;;;;;;
2021/08/27 22:59:42;;;;;;;4.75;2.50;;;15.60;93.80;;;;;;6159526;23;20035;-94
2021/08/27 23:02:47;;;;;;;;;;;;;;;;;;;;;
2021/08/27 23:27:02;;;;;;;;;;;;;;;;;;;;;
2021/08/27 23:37:32;;;;;;;;;;;;;;;;;;;;;
2021/08/27 23:44:37;;;;;;;;;;;;;;;;;;;;;
2021/08/27 23:54:26;;;;;;;;;;;;;;;;;;;;;
2021/08/27 23:58:03;;;;;;;;;;;;;;;;;;;;;
